sensor_id;sensor_type;location;lat;lon;timestamp;P1;durP1;ratioP1;P2;durP2;ratioP2
23628;SDS011;11991;57.150;-2.134;2023-10-19T00:00:43;14.73;;;2.65;;
23628;SDS011;11991;57.150;-2.134;2023-10-19T00:03:16;7.60;;;2.63;;
23628;SDS011;11991;57.150;-2.134;2023-10-19T00:05:45;9.15;;;2.85;;
23628;SDS011;11991;57.150;-2.134;2023-10-19T00:08:13;9.52;;;2.72;;
23628;SDS011;11991;57.150;-2.134;2023-10-19T00:10:48;13.73;;;3.20;;
23628;SDS011;11991;57.150;-2.134;2023-10-19T00:13:29;9.13;;;2.85;;
23628;SDS011;11991;57.150;-2.134;2023-10-19T00:15:56;5.47;;;2.30;;
23628;SDS011;11991;57.150;-2.134;2023-10-19T00:18:24;5.07;;;2.42;;
23628;SDS011;11991;57.150;-2.134;2023-10-19T00:20:52;5.22;;;1.90;;
23628;SDS011;11991;57.150;-2.134;2023-10-19T00:23:25;8.50;;;2.22;;
23628;SDS011;11991;57.150;-2.134;2023-10-19T00:25:56;8.13;;;2.60;;
23628;SDS011;11991;57.150;-2.134;2023-10-19T00:28:24;6.70;;;1.75;;
23628;SDS011;11991;57.150;-2.134;2023-10-19T00:30:55;12.95;;;3.65;;
23628;SDS011;11991;57.150;-2.134;2023-10-19T00:33:30;11.63;;;3.40;;
23628;SDS011;11991;57.150;-2.134;2023-10-19T00:35:59;11.65;;;2.92;;
23628;SDS011;11991;57.150;-2.134;2023-10-19T00:38:33;11.82;;;3.40;;
23628;SDS011;11991;57.150;-2.134;2023-10-19T00:41:02;9.68;;;2.13;;
23628;SDS011;11991;57.150;-2.134;2023-10-19T00:43:39;12.77;;;3.20;;
23628;SDS011;11991;57.150;-2.134;2023-10-19T00:46:15;11.48;;;3.03;;
23628;SDS011;11991;57.150;-2.134;2023-10-19T00:48:51;13.80;;;3.58;;
23628;SDS011;11991;57.150;-2.134;2023-10-19T00:51:27;10.52;;;2.88;;
23628;SDS011;11991;57.150;-2.134;2023-10-19T00:56:37;9.45;;;2.67;;
23628;SDS011;11991;57.150;-2.134;2023-10-19T00:59:07;6.75;;;2.10;;
23628;SDS011;11991;57.150;-2.134;2023-10-19T01:01:41;7.55;;;2.90;;
23628;SDS011;11991;57.150;-2.134;2023-10-19T01:04:15;11.60;;;3.60;;
23628;SDS011;11991;57.150;-2.134;2023-10-19T01:06:50;10.30;;;2.97;;
23628;SDS011;11991;57.150;-2.134;2023-10-19T01:09:39;8.68;;;3.28;;
23628;SDS011;11991;57.150;-2.134;2023-10-19T01:12:07;9.25;;;2.75;;
23628;SDS011;11991;57.150;-2.134;2023-10-19T01:17:47;11.05;;;3.53;;
23628;SDS011;11991;57.150;-2.134;2023-10-19T01:20:20;16.45;;;4.10;;
23628;SDS011;11991;57.150;-2.134;2023-10-19T01:23:01;15.57;;;3.42;;
23628;SDS011;11991;57.150;-2.134;2023-10-19T01:28:08;19.00;;;4.80;;
23628;SDS011;11991;57.150;-2.134;2023-10-19T01:30:37;12.20;;;2.80;;
23628;SDS011;11991;57.150;-2.134;2023-10-19T01:33:05;15.23;;;3.70;;
23628;SDS011;11991;57.150;-2.134;2023-10-19T01:35:40;10.27;;;3.08;;
23628;SDS011;11991;57.150;-2.134;2023-10-19T01:38:27;9.90;;;2.70;;
23628;SDS011;11991;57.150;-2.134;2023-10-19T01:40:57;11.20;;;3.22;;
23628;SDS011;11991;57.150;-2.134;2023-10-19T01:43:32;14.27;;;3.95;;
23628;SDS011;11991;57.150;-2.134;2023-10-19T01:46:00;7.97;;;1.90;;
23628;SDS011;11991;57.150;-2.134;2023-10-19T01:48:47;10.93;;;3.50;;
23628;SDS011;11991;57.150;-2.134;2023-10-19T01:51:22;10.05;;;3.08;;
23628;SDS011;11991;57.150;-2.134;2023-10-19T01:54:05;9.00;;;2.80;;
23628;SDS011;11991;57.150;-2.134;2023-10-19T01:56:34;18.88;;;5.03;;
23628;SDS011;11991;57.150;-2.134;2023-10-19T01:59:03;13.63;;;3.25;;
23628;SDS011;11991;57.150;-2.134;2023-10-19T02:01:31;12.30;;;3.20;;
23628;SDS011;11991;57.150;-2.134;2023-10-19T02:04:04;4.10;;;2.03;;
23628;SDS011;11991;57.150;-2.134;2023-10-19T02:06:33;14.32;;;3.90;;
23628;SDS011;11991;57.150;-2.134;2023-10-19T02:09:04;13.25;;;3.78;;
23628;SDS011;11991;57.150;-2.134;2023-10-19T02:11:47;12.90;;;3.15;;
23628;SDS011;11991;57.150;-2.134;2023-10-19T02:14:16;17.10;;;4.10;;
23628;SDS011;11991;57.150;-2.134;2023-10-19T02:16:46;15.38;;;3.83;;
23628;SDS011;11991;57.150;-2.134;2023-10-19T02:19:19;9.07;;;3.13;;
23628;SDS011;11991;57.150;-2.134;2023-10-19T02:21:48;13.75;;;3.47;;
23628;SDS011;11991;57.150;-2.134;2023-10-19T02:24:18;5.07;;;2.38;;
23628;SDS011;11991;57.150;-2.134;2023-10-19T02:26:48;9.45;;;2.92;;
23628;SDS011;11991;57.150;-2.134;2023-10-19T02:29:18;12.98;;;3.67;;
23628;SDS011;11991;57.150;-2.134;2023-10-19T02:31:45;16.27;;;4.10;;
23628;SDS011;11991;57.150;-2.134;2023-10-19T02:34:14;10.95;;;2.92;;
23628;SDS011;11991;57.150;-2.134;2023-10-19T02:36:42;15.02;;;3.92;;
23628;SDS011;11991;57.150;-2.134;2023-10-19T02:39:11;11.63;;;3.05;;
23628;SDS011;11991;57.150;-2.134;2023-10-19T02:41:41;12.02;;;3.15;;
23628;SDS011;11991;57.150;-2.134;2023-10-19T02:44:15;11.88;;;3.78;;
23628;SDS011;11991;57.150;-2.134;2023-10-19T02:46:46;13.57;;;3.58;;
23628;SDS011;11991;57.150;-2.134;2023-10-19T02:49:15;7.45;;;2.55;;
23628;SDS011;11991;57.150;-2.134;2023-10-19T02:51:50;7.80;;;2.58;;
23628;SDS011;11991;57.150;-2.134;2023-10-19T02:54:18;16.73;;;3.38;;
23628;SDS011;11991;57.150;-2.134;2023-10-19T02:56:49;14.93;;;4.07;;
23628;SDS011;11991;57.150;-2.134;2023-10-19T02:59:19;18.88;;;4.32;;
23628;SDS011;11991;57.150;-2.134;2023-10-19T03:01:51;10.50;;;2.60;;
23628;SDS011;11991;57.150;-2.134;2023-10-19T03:04:19;8.68;;;2.30;;
23628;SDS011;11991;57.150;-2.134;2023-10-19T03:06:47;10.95;;;2.85;;
23628;SDS011;11991;57.150;-2.134;2023-10-19T03:09:15;16.45;;;4.03;;
23628;SDS011;11991;57.150;-2.134;2023-10-19T03:11:49;18.33;;;4.55;;
23628;SDS011;11991;57.150;-2.134;2023-10-19T03:14:21;13.65;;;3.53;;
23628;SDS011;11991;57.150;-2.134;2023-10-19T03:16:52;15.55;;;3.55;;
23628;SDS011;11991;57.150;-2.134;2023-10-19T03:19:22;12.75;;;3.97;;
23628;SDS011;11991;57.150;-2.134;2023-10-19T03:21:53;19.23;;;4.53;;
23628;SDS011;11991;57.150;-2.134;2023-10-19T03:24:27;8.55;;;3.33;;
23628;SDS011;11991;57.150;-2.134;2023-10-19T03:27:05;16.90;;;4.35;;
23628;SDS011;11991;57.150;-2.134;2023-10-19T03:29:43;14.13;;;3.78;;
23628;SDS011;11991;57.150;-2.134;2023-10-19T03:32:15;11.48;;;2.90;;
23628;SDS011;11991;57.150;-2.134;2023-10-19T03:34:43;7.63;;;2.67;;
23628;SDS011;11991;57.150;-2.134;2023-10-19T03:37:14;13.70;;;3.10;;
23628;SDS011;11991;57.150;-2.134;2023-10-19T03:39:41;14.30;;;3.97;;
23628;SDS011;11991;57.150;-2.134;2023-10-19T03:42:12;16.38;;;4.97;;
23628;SDS011;11991;57.150;-2.134;2023-10-19T03:44:42;12.10;;;3.03;;
23628;SDS011;11991;57.150;-2.134;2023-10-19T03:47:16;14.32;;;3.03;;
23628;SDS011;11991;57.150;-2.134;2023-10-19T03:49:47;6.32;;;2.65;;
23628;SDS011;11991;57.150;-2.134;2023-10-19T03:52:17;13.75;;;4.05;;
23628;SDS011;11991;57.150;-2.134;2023-10-19T03:54:45;21.90;;;4.43;;
23628;SDS011;11991;57.150;-2.134;2023-10-19T03:57:16;21.10;;;5.70;;
23628;SDS011;11991;57.150;-2.134;2023-10-19T03:59:56;15.77;;;4.00;;
23628;SDS011;11991;57.150;-2.134;2023-10-19T04:02:27;15.93;;;4.13;;
23628;SDS011;11991;57.150;-2.134;2023-10-19T04:05:04;12.90;;;3.38;;
23628;SDS011;11991;57.150;-2.134;2023-10-19T04:07:32;12.73;;;4.25;;
23628;SDS011;11991;57.150;-2.134;2023-10-19T04:09:59;17.50;;;3.88;;
23628;SDS011;11991;57.150;-2.134;2023-10-19T04:12:33;21.63;;;4.85;;
23628;SDS011;11991;57.150;-2.134;2023-10-19T04:15:02;18.15;;;5.03;;
23628;SDS011;11991;57.150;-2.134;2023-10-19T04:17:43;10.77;;;2.88;;
23628;SDS011;11991;57.150;-2.134;2023-10-19T04:20:12;12.10;;;3.40;;
23628;SDS011;11991;57.150;-2.134;2023-10-19T04:22:44;9.98;;;2.88;;
23628;SDS011;11991;57.150;-2.134;2023-10-19T04:25:11;14.02;;;4.97;;
23628;SDS011;11991;57.150;-2.134;2023-10-19T04:27:39;14.70;;;3.95;;
23628;SDS011;11991;57.150;-2.134;2023-10-19T04:30:09;13.57;;;3.35;;
23628;SDS011;11991;57.150;-2.134;2023-10-19T04:32:42;16.45;;;4.07;;
23628;SDS011;11991;57.150;-2.134;2023-10-19T04:35:10;15.25;;;3.83;;
23628;SDS011;11991;57.150;-2.134;2023-10-19T04:37:40;9.30;;;2.58;;
23628;SDS011;11991;57.150;-2.134;2023-10-19T04:40:11;12.88;;;3.95;;
23628;SDS011;11991;57.150;-2.134;2023-10-19T04:42:38;16.92;;;4.70;;
23628;SDS011;11991;57.150;-2.134;2023-10-19T04:45:06;9.52;;;3.05;;
23628;SDS011;11991;57.150;-2.134;2023-10-19T04:47:33;9.93;;;3.75;;
23628;SDS011;11991;57.150;-2.134;2023-10-19T04:50:03;11.27;;;3.42;;
23628;SDS011;11991;57.150;-2.134;2023-10-19T04:52:30;17.58;;;4.60;;
23628;SDS011;11991;57.150;-2.134;2023-10-19T04:54:58;12.57;;;3.45;;
23628;SDS011;11991;57.150;-2.134;2023-10-19T04:57:25;13.63;;;3.17;;
23628;SDS011;11991;57.150;-2.134;2023-10-19T04:59:53;17.90;;;4.80;;
23628;SDS011;11991;57.150;-2.134;2023-10-19T05:02:20;18.73;;;4.68;;
23628;SDS011;11991;57.150;-2.134;2023-10-19T05:04:47;12.70;;;3.25;;
23628;SDS011;11991;57.150;-2.134;2023-10-19T05:07:16;15.75;;;4.13;;
23628;SDS011;11991;57.150;-2.134;2023-10-19T05:09:43;20.20;;;4.22;;
23628;SDS011;11991;57.150;-2.134;2023-10-19T05:12:12;13.90;;;4.10;;
23628;SDS011;11991;57.150;-2.134;2023-10-19T05:14:41;14.65;;;4.63;;
23628;SDS011;11991;57.150;-2.134;2023-10-19T05:17:09;15.27;;;4.15;;
23628;SDS011;11991;57.150;-2.134;2023-10-19T05:19:38;21.73;;;4.90;;
23628;SDS011;11991;57.150;-2.134;2023-10-19T05:22:06;11.13;;;3.28;;
23628;SDS011;11991;57.150;-2.134;2023-10-19T05:24:35;15.30;;;3.88;;
23628;SDS011;11991;57.150;-2.134;2023-10-19T05:27:02;11.50;;;3.75;;
23628;SDS011;11991;57.150;-2.134;2023-10-19T05:29:31;20.85;;;4.80;;
23628;SDS011;11991;57.150;-2.134;2023-10-19T05:32:02;17.35;;;3.70;;
23628;SDS011;11991;57.150;-2.134;2023-10-19T05:34:30;19.38;;;5.15;;
23628;SDS011;11991;57.150;-2.134;2023-10-19T05:36:59;25.17;;;5.20;;
23628;SDS011;11991;57.150;-2.134;2023-10-19T05:39:29;11.57;;;3.38;;
23628;SDS011;11991;57.150;-2.134;2023-10-19T05:41:58;14.32;;;3.90;;
23628;SDS011;11991;57.150;-2.134;2023-10-19T05:44:28;17.48;;;4.60;;
23628;SDS011;11991;57.150;-2.134;2023-10-19T05:46:57;15.95;;;4.78;;
23628;SDS011;11991;57.150;-2.134;2023-10-19T05:49:25;15.82;;;5.05;;
23628;SDS011;11991;57.150;-2.134;2023-10-19T05:51:53;15.07;;;4.68;;
23628;SDS011;11991;57.150;-2.134;2023-10-19T05:54:20;16.60;;;4.55;;
23628;SDS011;11991;57.150;-2.134;2023-10-19T05:56:50;15.07;;;4.15;;
23628;SDS011;11991;57.150;-2.134;2023-10-19T05:59:18;13.43;;;4.78;;
23628;SDS011;11991;57.150;-2.134;2023-10-19T06:01:45;19.27;;;4.60;;
23628;SDS011;11991;57.150;-2.134;2023-10-19T06:04:13;19.65;;;4.35;;
23628;SDS011;11991;57.150;-2.134;2023-10-19T06:06:44;11.18;;;3.10;;
23628;SDS011;11991;57.150;-2.134;2023-10-19T06:09:11;14.80;;;3.97;;
23628;SDS011;11991;57.150;-2.134;2023-10-19T06:11:38;14.68;;;4.18;;
23628;SDS011;11991;57.150;-2.134;2023-10-19T06:14:09;17.88;;;5.18;;
23628;SDS011;11991;57.150;-2.134;2023-10-19T06:16:36;15.00;;;4.07;;
23628;SDS011;11991;57.150;-2.134;2023-10-19T06:19:03;16.55;;;4.28;;
23628;SDS011;11991;57.150;-2.134;2023-10-19T06:21:32;17.08;;;4.50;;
23628;SDS011;11991;57.150;-2.134;2023-10-19T06:24:00;17.00;;;4.18;;
23628;SDS011;11991;57.150;-2.134;2023-10-19T06:26:29;20.83;;;5.55;;
23628;SDS011;11991;57.150;-2.134;2023-10-19T06:28:56;23.90;;;6.00;;
23628;SDS011;11991;57.150;-2.134;2023-10-19T06:31:26;15.75;;;5.10;;
23628;SDS011;11991;57.150;-2.134;2023-10-19T06:33:56;13.73;;;3.67;;
23628;SDS011;11991;57.150;-2.134;2023-10-19T06:36:24;21.73;;;4.75;;
23628;SDS011;11991;57.150;-2.134;2023-10-19T06:38:51;21.80;;;5.07;;
23628;SDS011;11991;57.150;-2.134;2023-10-19T06:41:21;23.00;;;5.72;;
23628;SDS011;11991;57.150;-2.134;2023-10-19T06:43:49;22.02;;;5.22;;
23628;SDS011;11991;57.150;-2.134;2023-10-19T06:46:17;19.40;;;4.85;;
23628;SDS011;11991;57.150;-2.134;2023-10-19T06:48:53;22.20;;;4.65;;
23628;SDS011;11991;57.150;-2.134;2023-10-19T06:51:23;19.95;;;5.00;;
23628;SDS011;11991;57.150;-2.134;2023-10-19T06:53:52;21.98;;;6.03;;
23628;SDS011;11991;57.150;-2.134;2023-10-19T06:56:20;24.90;;;5.85;;
23628;SDS011;11991;57.150;-2.134;2023-10-19T06:58:47;17.38;;;5.30;;
23628;SDS011;11991;57.150;-2.134;2023-10-19T07:01:14;13.02;;;3.78;;
23628;SDS011;11991;57.150;-2.134;2023-10-19T07:03:44;19.08;;;5.50;;
23628;SDS011;11991;57.150;-2.134;2023-10-19T07:06:11;24.70;;;5.80;;
23628;SDS011;11991;57.150;-2.134;2023-10-19T07:08:40;28.23;;;6.63;;
23628;SDS011;11991;57.150;-2.134;2023-10-19T07:11:07;28.00;;;5.82;;
23628;SDS011;11991;57.150;-2.134;2023-10-19T07:13:36;29.35;;;7.15;;
23628;SDS011;11991;57.150;-2.134;2023-10-19T07:16:03;16.23;;;5.10;;
23628;SDS011;11991;57.150;-2.134;2023-10-19T07:18:30;14.38;;;5.03;;
23628;SDS011;11991;57.150;-2.134;2023-10-19T07:20:58;20.20;;;4.70;;
23628;SDS011;11991;57.150;-2.134;2023-10-19T07:23:32;19.55;;;5.28;;
23628;SDS011;11991;57.150;-2.134;2023-10-19T07:25:59;19.05;;;5.13;;
23628;SDS011;11991;57.150;-2.134;2023-10-19T07:28:26;26.25;;;6.80;;
23628;SDS011;11991;57.150;-2.134;2023-10-19T07:30:54;15.60;;;5.10;;
23628;SDS011;11991;57.150;-2.134;2023-10-19T07:33:23;31.67;;;6.72;;
23628;SDS011;11991;57.150;-2.134;2023-10-19T07:35:51;23.17;;;5.85;;
23628;SDS011;11991;57.150;-2.134;2023-10-19T07:38:22;22.35;;;5.55;;
23628;SDS011;11991;57.150;-2.134;2023-10-19T07:40:50;26.05;;;5.85;;
23628;SDS011;11991;57.150;-2.134;2023-10-19T07:43:20;17.05;;;4.35;;
23628;SDS011;11991;57.150;-2.134;2023-10-19T07:45:48;11.38;;;4.03;;
23628;SDS011;11991;57.150;-2.134;2023-10-19T07:48:16;24.35;;;6.97;;
23628;SDS011;11991;57.150;-2.134;2023-10-19T07:50:44;22.13;;;6.50;;
23628;SDS011;11991;57.150;-2.134;2023-10-19T07:53:11;17.45;;;4.97;;
23628;SDS011;11991;57.150;-2.134;2023-10-19T07:55:39;28.00;;;7.93;;
23628;SDS011;11991;57.150;-2.134;2023-10-19T07:58:07;26.95;;;6.30;;
23628;SDS011;11991;57.150;-2.134;2023-10-19T08:00:34;20.83;;;6.03;;
23628;SDS011;11991;57.150;-2.134;2023-10-19T08:03:02;28.50;;;6.50;;
23628;SDS011;11991;57.150;-2.134;2023-10-19T08:05:31;21.20;;;5.72;;
23628;SDS011;11991;57.150;-2.134;2023-10-19T08:08:00;24.85;;;6.45;;
23628;SDS011;11991;57.150;-2.134;2023-10-19T08:10:30;25.10;;;5.93;;
23628;SDS011;11991;57.150;-2.134;2023-10-19T08:12:58;33.55;;;7.47;;
23628;SDS011;11991;57.150;-2.134;2023-10-19T08:15:26;28.40;;;7.97;;
23628;SDS011;11991;57.150;-2.134;2023-10-19T08:17:56;19.45;;;5.55;;
23628;SDS011;11991;57.150;-2.134;2023-10-19T08:20:23;20.05;;;6.20;;
23628;SDS011;11991;57.150;-2.134;2023-10-19T08:22:52;22.15;;;6.22;;
23628;SDS011;11991;57.150;-2.134;2023-10-19T08:25:20;20.90;;;6.05;;
23628;SDS011;11991;57.150;-2.134;2023-10-19T08:27:48;39.15;;;8.02;;
23628;SDS011;11991;57.150;-2.134;2023-10-19T08:30:23;24.05;;;5.95;;
23628;SDS011;11991;57.150;-2.134;2023-10-19T08:32:54;28.65;;;7.68;;
23628;SDS011;11991;57.150;-2.134;2023-10-19T08:35:21;22.95;;;6.35;;
23628;SDS011;11991;57.150;-2.134;2023-10-19T08:37:53;20.48;;;6.22;;
23628;SDS011;11991;57.150;-2.134;2023-10-19T08:40:21;23.65;;;7.18;;
23628;SDS011;11991;57.150;-2.134;2023-10-19T08:42:50;25.77;;;7.25;;
23628;SDS011;11991;57.150;-2.134;2023-10-19T08:45:18;24.45;;;7.45;;
23628;SDS011;11991;57.150;-2.134;2023-10-19T08:47:49;24.40;;;7.45;;
23628;SDS011;11991;57.150;-2.134;2023-10-19T08:50:24;19.77;;;5.68;;
23628;SDS011;11991;57.150;-2.134;2023-10-19T08:52:53;34.30;;;8.10;;
23628;SDS011;11991;57.150;-2.134;2023-10-19T08:55:22;19.35;;;4.97;;
23628;SDS011;11991;57.150;-2.134;2023-10-19T08:58:10;32.67;;;8.73;;
23628;SDS011;11991;57.150;-2.134;2023-10-19T09:00:44;23.65;;;7.10;;
23628;SDS011;11991;57.150;-2.134;2023-10-19T09:03:16;23.23;;;6.32;;
23628;SDS011;11991;57.150;-2.134;2023-10-19T09:05:45;21.08;;;5.63;;
23628;SDS011;11991;57.150;-2.134;2023-10-19T09:08:18;20.73;;;5.95;;
23628;SDS011;11991;57.150;-2.134;2023-10-19T09:10:49;19.85;;;5.07;;
23628;SDS011;11991;57.150;-2.134;2023-10-19T09:13:21;17.50;;;6.18;;
23628;SDS011;11991;57.150;-2.134;2023-10-19T09:15:50;29.23;;;8.25;;
23628;SDS011;11991;57.150;-2.134;2023-10-19T09:18:23;31.20;;;8.55;;
23628;SDS011;11991;57.150;-2.134;2023-10-19T09:20:55;26.50;;;6.68;;
23628;SDS011;11991;57.150;-2.134;2023-10-19T09:23:32;29.35;;;8.32;;
23628;SDS011;11991;57.150;-2.134;2023-10-19T09:25:59;27.00;;;7.45;;
23628;SDS011;11991;57.150;-2.134;2023-10-19T09:28:35;19.73;;;5.03;;
23628;SDS011;11991;57.150;-2.134;2023-10-19T09:31:03;24.73;;;5.85;;
23628;SDS011;11991;57.150;-2.134;2023-10-19T09:33:32;39.22;;;8.73;;
23628;SDS011;11991;57.150;-2.134;2023-10-19T09:36:01;35.97;;;8.35;;
23628;SDS011;11991;57.150;-2.134;2023-10-19T09:38:31;24.85;;;7.00;;
23628;SDS011;11991;57.150;-2.134;2023-10-19T09:41:00;29.08;;;8.70;;
23628;SDS011;11991;57.150;-2.134;2023-10-19T09:46:08;30.70;;;7.70;;
23628;SDS011;11991;57.150;-2.134;2023-10-19T09:48:41;34.85;;;8.27;;
23628;SDS011;11991;57.150;-2.134;2023-10-19T09:51:12;36.88;;;9.70;;
23628;SDS011;11991;57.150;-2.134;2023-10-19T09:56:36;31.13;;;6.90;;
23628;SDS011;11991;57.150;-2.134;2023-10-19T09:59:26;29.33;;;8.93;;
23628;SDS011;11991;57.150;-2.134;2023-10-19T10:02:06;39.78;;;9.07;;
23628;SDS011;11991;57.150;-2.134;2023-10-19T10:04:38;20.42;;;7.32;;
23628;SDS011;11991;57.150;-2.134;2023-10-19T10:07:12;23.80;;;8.73;;
23628;SDS011;11991;57.150;-2.134;2023-10-19T10:09:45;29.05;;;8.30;;
23628;SDS011;11991;57.150;-2.134;2023-10-19T10:12:16;14.68;;;5.07;;
23628;SDS011;11991;57.150;-2.134;2023-10-19T10:14:52;29.67;;;8.02;;
23628;SDS011;11991;57.150;-2.134;2023-10-19T10:17:25;28.83;;;6.97;;
23628;SDS011;11991;57.150;-2.134;2023-10-19T10:19:54;30.45;;;7.90;;
23628;SDS011;11991;57.150;-2.134;2023-10-19T10:22:26;17.13;;;6.10;;
23628;SDS011;11991;57.150;-2.134;2023-10-19T10:24:54;20.42;;;6.50;;
23628;SDS011;11991;57.150;-2.134;2023-10-19T10:27:24;22.15;;;5.45;;
23628;SDS011;11991;57.150;-2.134;2023-10-19T10:29:58;27.27;;;7.60;;
23628;SDS011;11991;57.150;-2.134;2023-10-19T10:32:52;23.95;;;6.68;;
23628;SDS011;11991;57.150;-2.134;2023-10-19T10:38:21;29.38;;;7.97;;
23628;SDS011;11991;57.150;-2.134;2023-10-19T10:40:51;17.35;;;5.72;;
23628;SDS011;11991;57.150;-2.134;2023-10-19T10:43:19;25.95;;;8.38;;
23628;SDS011;11991;57.150;-2.134;2023-10-19T10:45:48;31.13;;;9.23;;
23628;SDS011;11991;57.150;-2.134;2023-10-19T10:48:16;39.65;;;9.45;;
23628;SDS011;11991;57.150;-2.134;2023-10-19T10:50:46;27.42;;;8.32;;
23628;SDS011;11991;57.150;-2.134;2023-10-19T10:53:13;25.40;;;7.13;;
23628;SDS011;11991;57.150;-2.134;2023-10-19T10:55:44;27.75;;;8.30;;
23628;SDS011;11991;57.150;-2.134;2023-10-19T10:58:15;27.98;;;8.23;;
23628;SDS011;11991;57.150;-2.134;2023-10-19T11:00:46;28.38;;;8.70;;
23628;SDS011;11991;57.150;-2.134;2023-10-19T11:03:15;22.73;;;7.60;;
23628;SDS011;11991;57.150;-2.134;2023-10-19T11:05:43;40.15;;;9.38;;
23628;SDS011;11991;57.150;-2.134;2023-10-19T11:08:15;20.17;;;6.82;;
23628;SDS011;11991;57.150;-2.134;2023-10-19T11:10:44;25.77;;;8.45;;
23628;SDS011;11991;57.150;-2.134;2023-10-19T11:13:16;34.97;;;9.00;;
23628;SDS011;11991;57.150;-2.134;2023-10-19T11:15:48;31.08;;;9.45;;
23628;SDS011;11991;57.150;-2.134;2023-10-19T11:18:32;32.13;;;9.02;;
23628;SDS011;11991;57.150;-2.134;2023-10-19T11:21:07;34.17;;;9.75;;
23628;SDS011;11991;57.150;-2.134;2023-10-19T11:26:06;37.03;;;10.18;;
23628;SDS011;11991;57.150;-2.134;2023-10-19T11:28:34;32.35;;;9.68;;
23628;SDS011;11991;57.150;-2.134;2023-10-19T11:31:12;26.02;;;8.00;;
23628;SDS011;11991;57.150;-2.134;2023-10-19T11:33:41;35.45;;;9.98;;
23628;SDS011;11991;57.150;-2.134;2023-10-19T11:36:12;29.40;;;8.27;;
23628;SDS011;11991;57.150;-2.134;2023-10-19T11:38:40;42.65;;;11.63;;
23628;SDS011;11991;57.150;-2.134;2023-10-19T11:41:14;32.58;;;9.23;;
23628;SDS011;11991;57.150;-2.134;2023-10-19T11:43:44;32.13;;;8.57;;
23628;SDS011;11991;57.150;-2.134;2023-10-19T11:46:13;23.50;;;7.30;;
23628;SDS011;11991;57.150;-2.134;2023-10-19T11:48:41;28.40;;;8.45;;
23628;SDS011;11991;57.150;-2.134;2023-10-19T11:51:12;31.90;;;8.23;;
23628;SDS011;11991;57.150;-2.134;2023-10-19T11:53:40;28.23;;;8.10;;
23628;SDS011;11991;57.150;-2.134;2023-10-19T11:56:10;37.35;;;8.63;;
23628;SDS011;11991;57.150;-2.134;2023-10-19T11:58:40;42.78;;;10.88;;
23628;SDS011;11991;57.150;-2.134;2023-10-19T12:01:09;26.25;;;8.80;;
23628;SDS011;11991;57.150;-2.134;2023-10-19T12:03:40;37.53;;;10.73;;
23628;SDS011;11991;57.150;-2.134;2023-10-19T12:06:08;26.52;;;8.82;;
23628;SDS011;11991;57.150;-2.134;2023-10-19T12:08:38;24.70;;;6.55;;
23628;SDS011;11991;57.150;-2.134;2023-10-19T12:11:06;33.67;;;8.55;;
23628;SDS011;11991;57.150;-2.134;2023-10-19T12:13:46;32.20;;;9.55;;
23628;SDS011;11991;57.150;-2.134;2023-10-19T12:16:14;28.30;;;7.82;;
23628;SDS011;11991;57.150;-2.134;2023-10-19T12:18:43;26.17;;;8.23;;
23628;SDS011;11991;57.150;-2.134;2023-10-19T12:21:11;27.55;;;7.75;;
23628;SDS011;11991;57.150;-2.134;2023-10-19T12:23:38;31.70;;;8.80;;
23628;SDS011;11991;57.150;-2.134;2023-10-19T12:26:07;45.28;;;12.45;;
23628;SDS011;11991;57.150;-2.134;2023-10-19T12:28:41;36.03;;;10.10;;
23628;SDS011;11991;57.150;-2.134;2023-10-19T12:31:13;30.15;;;8.68;;
23628;SDS011;11991;57.150;-2.134;2023-10-19T12:33:41;31.88;;;10.18;;
23628;SDS011;11991;57.150;-2.134;2023-10-19T12:36:08;26.30;;;8.43;;
23628;SDS011;11991;57.150;-2.134;2023-10-19T12:38:51;19.33;;;6.40;;
23628;SDS011;11991;57.150;-2.134;2023-10-19T12:41:19;29.70;;;8.15;;
23628;SDS011;11991;57.150;-2.134;2023-10-19T12:43:47;28.38;;;8.23;;
23628;SDS011;11991;57.150;-2.134;2023-10-19T12:46:19;25.33;;;8.20;;
23628;SDS011;11991;57.150;-2.134;2023-10-19T12:48:51;28.92;;;8.70;;
23628;SDS011;11991;57.150;-2.134;2023-10-19T12:51:19;29.85;;;8.18;;
23628;SDS011;11991;57.150;-2.134;2023-10-19T12:53:50;26.33;;;6.80;;
23628;SDS011;11991;57.150;-2.134;2023-10-19T12:56:18;33.78;;;8.75;;
23628;SDS011;11991;57.150;-2.134;2023-10-19T12:58:47;35.20;;;8.57;;
23628;SDS011;11991;57.150;-2.134;2023-10-19T13:01:17;24.08;;;7.70;;
23628;SDS011;11991;57.150;-2.134;2023-10-19T13:03:45;29.00;;;8.68;;
23628;SDS011;11991;57.150;-2.134;2023-10-19T13:06:14;27.00;;;7.60;;
23628;SDS011;11991;57.150;-2.134;2023-10-19T13:08:41;29.30;;;8.68;;
23628;SDS011;11991;57.150;-2.134;2023-10-19T13:11:08;37.92;;;10.32;;
23628;SDS011;11991;57.150;-2.134;2023-10-19T13:13:44;26.35;;;8.77;;
23628;SDS011;11991;57.150;-2.134;2023-10-19T13:16:12;26.13;;;8.73;;
23628;SDS011;11991;57.150;-2.134;2023-10-19T13:18:41;29.58;;;8.65;;
23628;SDS011;11991;57.150;-2.134;2023-10-19T13:21:08;38.42;;;10.27;;
23628;SDS011;11991;57.150;-2.134;2023-10-19T13:23:43;25.35;;;7.13;;
23628;SDS011;11991;57.150;-2.134;2023-10-19T13:26:11;31.00;;;7.63;;
23628;SDS011;11991;57.150;-2.134;2023-10-19T13:28:41;23.50;;;7.05;;
23628;SDS011;11991;57.150;-2.134;2023-10-19T13:31:09;26.90;;;7.70;;
23628;SDS011;11991;57.150;-2.134;2023-10-19T13:33:37;29.83;;;8.65;;
23628;SDS011;11991;57.150;-2.134;2023-10-19T13:36:05;33.80;;;8.75;;
23628;SDS011;11991;57.150;-2.134;2023-10-19T13:38:32;26.08;;;6.68;;
23628;SDS011;11991;57.150;-2.134;2023-10-19T13:41:06;30.38;;;8.15;;
23628;SDS011;11991;57.150;-2.134;2023-10-19T13:43:40;27.83;;;7.30;;
23628;SDS011;11991;57.150;-2.134;2023-10-19T13:46:11;31.08;;;9.35;;
23628;SDS011;11991;57.150;-2.134;2023-10-19T13:48:38;32.20;;;7.45;;
23628;SDS011;11991;57.150;-2.134;2023-10-19T13:51:06;29.15;;;8.15;;
23628;SDS011;11991;57.150;-2.134;2023-10-19T13:53:44;26.83;;;7.78;;
23628;SDS011;11991;57.150;-2.134;2023-10-19T13:56:12;25.85;;;7.63;;
23628;SDS011;11991;57.150;-2.134;2023-10-19T13:58:41;29.95;;;9.38;;
23628;SDS011;11991;57.150;-2.134;2023-10-19T14:01:09;25.55;;;6.95;;
23628;SDS011;11991;57.150;-2.134;2023-10-19T14:03:40;29.42;;;7.80;;
23628;SDS011;11991;57.150;-2.134;2023-10-19T14:06:13;40.63;;;11.07;;
23628;SDS011;11991;57.150;-2.134;2023-10-19T14:08:41;25.15;;;7.95;;
23628;SDS011;11991;57.150;-2.134;2023-10-19T14:11:09;25.60;;;7.38;;
23628;SDS011;11991;57.150;-2.134;2023-10-19T14:13:36;42.00;;;9.73;;
23628;SDS011;11991;57.150;-2.134;2023-10-19T14:16:06;32.25;;;9.68;;
23628;SDS011;11991;57.150;-2.134;2023-10-19T14:18:35;27.83;;;7.40;;
23628;SDS011;11991;57.150;-2.134;2023-10-19T14:21:16;18.40;;;6.13;;
23628;SDS011;11991;57.150;-2.134;2023-10-19T14:23:45;24.75;;;7.05;;
23628;SDS011;11991;57.150;-2.134;2023-10-19T14:26:14;25.50;;;7.50;;
23628;SDS011;11991;57.150;-2.134;2023-10-19T14:28:42;29.10;;;8.70;;
23628;SDS011;11991;57.150;-2.134;2023-10-19T14:31:09;24.92;;;6.63;;
23628;SDS011;11991;57.150;-2.134;2023-10-19T14:33:38;24.55;;;7.05;;
23628;SDS011;11991;57.150;-2.134;2023-10-19T14:36:05;23.77;;;7.40;;
23628;SDS011;11991;57.150;-2.134;2023-10-19T14:38:33;27.10;;;7.60;;
23628;SDS011;11991;57.150;-2.134;2023-10-19T14:41:02;19.30;;;5.80;;
23628;SDS011;11991;57.150;-2.134;2023-10-19T14:43:29;20.20;;;5.32;;
23628;SDS011;11991;57.150;-2.134;2023-10-19T14:45:56;17.70;;;5.35;;
23628;SDS011;11991;57.150;-2.134;2023-10-19T14:48:23;24.73;;;6.68;;
23628;SDS011;11991;57.150;-2.134;2023-10-19T14:50:50;15.80;;;5.57;;
23628;SDS011;11991;57.150;-2.134;2023-10-19T14:53:18;26.65;;;7.38;;
23628;SDS011;11991;57.150;-2.134;2023-10-19T14:55:45;18.42;;;6.40;;
23628;SDS011;11991;57.150;-2.134;2023-10-19T14:58:12;21.48;;;6.10;;
23628;SDS011;11991;57.150;-2.134;2023-10-19T15:00:40;16.00;;;5.30;;